Pagina principale
METAR-TAF:

METAR-TAF

Aeroporti :

Meiringen, Svizzera

latitudine: 46-44-25N, longitudine: 8-06-36E, altezza: 577 m

Osservazione

Il bollettino è stato emesso 16 minuti fa, alle 13:50 UTC
Vento 3 kt da ovest/sud-ovest, variando fra sud/sud-ovest e nord-ovest
Temperature 19°C
Umidità 68%
Pressione 1020 hPa
Visibilità 10 km o più
Nubi sparse ad un'altezza di 15000 ft

METAR: LSMM 271350Z 25003KT 200V320 9999 SCT150 19/13 Q1020 RMK BLU+

Ora: 16:06 (14:06 UTC)


TAF: mancante

Osservazioni e previsioni meteorologiche di più di 4000 aeroporti (messaggi METAR e TAF).

Le stazioni disponibili sono rappresentate dai dischi gialli e rossi sulla carta.

Puntare il mouse per vedere il nome della stazione.

Clicca sopra per visualizzare le osservazioni e previsioni meteorologiche.

Per cambiare la mappa : fare clic sui pulsanti verdi con una croce nera per ingrandire, il pulsante verde con un trattino per diminuire, o sulla freccia verde per le mappe adiacenti.


METAR-TAF: